K9MN

Rochester

Rochester, Minnesota, USA
METAR K9MN 182016Z AUTO 20011G19KT 10SM CLR 03/00 A2972 RMK AO1 T00321003
Observed Flight Rules
Dec-18 @ 20:16 UTC (16 minutes ago) Visual Flight Rules
Wind Visibility Clouds
200° at 11 knots
 Gusting to 19 knots
10 miles
  • Clear skies
Temperatures Readings
Current 3°C / 37°F
Dewpoint -0°C / 32°F
Humidity 81%
Altimeter 29.72" Hg
Pressure 1006 hPa
Elevation 355
METAR K9MN 182016Z AUTO 20011G19KT 10SM CLR 03/00 A2972 RMK AO1 T00321003
Observed Flight Rules
Dec-18 @ 20:16 UTC
(16 minutes ago)
VFR
Wind Visibility
200° at 11 knots
 Gusting to 19 knots
10 miles
Clouds
  • Clear skies
Temperature Dewpoint
3°C / 37°F -0°C / 32°F
Humidity Altimeter Pressure
81% 29.72" Hg 1006 hPa